Carneys Point Township, New Jersey
Current Conditions -  °F | °C
As of 12:51 PM on Wednesday 28 Jan 2015 (Local Time) from KILG Reporting Station
Clear Clear  
Wind Chill: -6°   Ceiling: Unl
Heat Index:   Visibility: 10mi
Dew Point: -17°   Wind: 14mph
Humidity: 28%   Direction: 320°NW
Pressure: 30.16"   Gusts: 25mph
Location:  39.6981°N, 75.4502°W
Report Text: KILG 281751Z 32012G22KT 10SM CLR 00/M17 A3016 RMK AO2 SLP214 T00001167 10000 21067 50001
Loading
Personal Weather Stations






























Interactive Weather Map New forecast layout! Learn more

10-Day Weather Forecast

Advertisements
Track Severe Weather on mobile